PWSweather.com
Personal Weather Stations
Station Observations
OPENSRS
Liberty Village, Toronto, ON M6K 3M1

Liberty VillageToronto, ON M6K 3M1

Lat: 43.63831, Lon: -79.42566

Elevation: 303

Station Type: Davis Instruments Vantage Pro 2

Latest ConditionsUpdated 2:20:06 AM EDT Monday, Jul 28, 2014
Currently Today's Max Today's Min Today's Average
Temperature 66.2°F19.0°C 66.3°F19.1°C 65.9°F18.8°C 66.1°F18.9°C
Dew Point 63.2°F17.3°C 63.9°F17.7°C 63.0°F17.2°C 63.4°F17.4°C
Winds 5.0 mph NE8.0 kmh NE 8.0 mph NNE12.9 kmh NNE - 3.5 mph 5.6 kmh
Wind Gusts 8.0 mph12.9 kmh 11.0 mph17.7 kmh - -
Humidity 90% 92% 90% 91%
Pressure 29.59 in1002.0 mb 29.64 in1003.7 mb 29.58 in1001.7 mb -
Hour Temp Dew Point Humidity Winds Wind Gusts Pressure Precip Precip Rate Daily Precip Total
02:20 AM 66.2°F19.0°C 63.2°F17.3°C 90% 5.0 mph NE8.0 kmh NE 8.0 mph12.9 kmh 29.59 in1002.0 mb 0.01 in0.3 mm 0.00 in/hr0.0 mm/hr 0.02 in0.5 mm
02:19 AM 66.2°F19.0°C 63.2°F17.3°C 90% 1.0 mph NE1.6 kmh NE 8.0 mph12.9 kmh 29.59 in1002.0 mb 0.01 in0.3 mm 0.00 in/hr0.0 mm/hr 0.02 in0.5 mm
02:18 AM 66.2°F19.0°C 63.2°F17.3°C 90% Calm Calm 8.0 mph12.9 kmh 29.58 in1001.7 mb 0.01 in0.3 mm 0.00 in/hr0.0 mm/hr 0.02 in0.5 mm
02:15 AM 66.2°F19.0°C 63.2°F17.3°C 90% 1.0 mph NNE1.6 kmh NNE 8.0 mph12.9 kmh 29.58 in1001.7 mb 0.01 in0.3 mm 0.00 in/hr0.0 mm/hr 0.02 in0.5 mm
02:14 AM 66.1°F18.9°C 63.1°F17.3°C 90% Calm Calm 8.0 mph12.9 kmh 29.59 in1002.0 mb 0.01 in0.3 mm 0.00 in/hr0.0 mm/hr 0.02 in0.5 mm
02:13 AM 66.1°F18.9°C 63.1°F17.3°C 90% Calm Calm 8.0 mph12.9 kmh 29.58 in1001.7 mb 0.01 in0.3 mm 0.00 in/hr0.0 mm/hr 0.02 in0.5 mm
02:10 AM 66.1°F18.9°C 63.1°F17.3°C 90% 2.0 mph NNE3.2 kmh NNE 8.0 mph12.9 kmh 29.58 in1001.7 mb 0.01 in0.3 mm 0.00 in/hr0.0 mm/hr 0.02 in0.5 mm
02:09 AM 66.1°F18.9°C 63.1°F17.3°C 90% 3.0 mph NNE4.8 kmh NNE 8.0 mph12.9 kmh 29.58 in1001.7 mb 0.01 in0.3 mm 0.00 in/hr0.0 mm/hr 0.02 in0.5 mm
02:08 AM 66.0°F18.9°C 63.0°F17.2°C 90% Calm Calm 8.0 mph12.9 kmh 29.59 in1002.0 mb 0.01 in0.3 mm 0.00 in/hr0.0 mm/hr 0.02 in0.5 mm
02:05 AM 66.0°F18.9°C 63.0°F17.2°C 90% 2.0 mph N3.2 kmh N 8.0 mph12.9 kmh 29.58 in1001.7 mb 0.01 in0.3 mm 0.00 in/hr0.0 mm/hr 0.02 in0.5 mm
02:04 AM 66.0°F18.9°C 63.0°F17.2°C 90% 3.0 mph N4.8 kmh N 8.0 mph12.9 kmh 29.58 in1001.7 mb 0.01 in0.3 mm 0.00 in/hr0.0 mm/hr 0.02 in0.5 mm
02:03 AM 66.1°F18.9°C 63.1°F17.3°C 90% 2.0 mph N3.2 kmh N 8.0 mph12.9 kmh 29.58 in1001.7 mb 0.01 in0.3 mm 0.00 in/hr0.0 mm/hr 0.02 in0.5 mm
02:00 AM 66.0°F18.9°C 63.0°F17.2°C 90% 3.0 mph N4.8 kmh N 3.0 mph4.8 kmh 29.58 in1001.7 mb 0.01 in0.3 mm 0.00 in/hr0.0 mm/hr 0.02 in0.5 mm
01:59 AM 66.1°F18.9°C 63.1°F17.3°C 90% Calm Calm 10.0 mph16.1 kmh 29.58 in1001.7 mb 0.02 in0.5 mm 0.00 in/hr0.0 mm/hr 0.02 in0.5 mm
01:58 AM 66.1°F18.9°C 63.1°F17.3°C 90% 7.0 mph N11.3 kmh N 10.0 mph16.1 kmh 29.58 in1001.7 mb 0.02 in0.5 mm 0.00 in/hr0.0 mm/hr 0.02 in0.5 mm
01:55 AM 66.0°F18.9°C 63.0°F17.2°C 90% 7.0 mph N11.3 kmh N 10.0 mph16.1 kmh 29.58 in1001.7 mb 0.02 in0.5 mm 0.00 in/hr0.0 mm/hr 0.02 in0.5 mm
01:54 AM 66.0°F18.9°C 63.0°F17.2°C 90% 5.0 mph N8.0 kmh N 10.0 mph16.1 kmh 29.58 in1001.7 mb 0.02 in0.5 mm 0.00 in/hr0.0 mm/hr 0.02 in0.5 mm
01:53 AM 66.1°F18.9°C 63.1°F17.3°C 90% 6.0 mph N9.7 kmh N 10.0 mph16.1 kmh 29.58 in1001.7 mb 0.02 in0.5 mm 0.00 in/hr0.0 mm/hr 0.02 in0.5 mm
01:50 AM 66.0°F18.9°C 63.3°F17.4°C 91% 2.0 mph N3.2 kmh N 10.0 mph16.1 kmh 29.59 in1002.0 mb 0.02 in0.5 mm 0.00 in/hr0.0 mm/hr 0.02 in0.5 mm
01:49 AM 66.0°F18.9°C 63.3°F17.4°C 91% 3.0 mph N4.8 kmh N 10.0 mph16.1 kmh 29.59 in1002.0 mb 0.02 in0.5 mm 0.00 in/hr0.0 mm/hr 0.02 in0.5 mm
01:48 AM 66.0°F18.9°C 63.3°F17.4°C 91% Calm Calm 10.0 mph16.1 kmh 29.59 in1002.0 mb 0.02 in0.5 mm 0.00 in/hr0.0 mm/hr 0.02 in0.5 mm
01:45 AM 66.0°F18.9°C 63.3°F17.4°C 91% 4.0 mph NNE6.4 kmh NNE 10.0 mph16.1 kmh 29.59 in1002.0 mb 0.02 in0.5 mm 0.00 in/hr0.0 mm/hr 0.02 in0.5 mm
01:44 AM 66.0°F18.9°C 63.3°F17.4°C 91% 3.0 mph NNE4.8 kmh NNE 10.0 mph16.1 kmh 29.59 in1002.0 mb 0.02 in0.5 mm 0.00 in/hr0.0 mm/hr 0.02 in0.5 mm
01:43 AM 66.0°F18.9°C 63.3°F17.4°C 91% 3.0 mph NNE4.8 kmh NNE 10.0 mph16.1 kmh 29.59 in1002.0 mb 0.02 in0.5 mm 0.00 in/hr0.0 mm/hr 0.02 in0.5 mm
01:40 AM 66.0°F18.9°C 63.3°F17.4°C 91% Calm Calm 10.0 mph16.1 kmh 29.59 in1002.0 mb 0.02 in0.5 mm 0.00 in/hr0.0 mm/hr 0.02 in0.5 mm
01:39 AM 66.0°F18.9°C 63.3°F17.4°C 91% 1.0 mph NNE1.6 kmh NNE 10.0 mph16.1 kmh 29.59 in1002.0 mb 0.02 in0.5 mm 0.00 in/hr0.0 mm/hr 0.02 in0.5 mm
01:38 AM 66.0°F18.9°C 63.3°F17.4°C 91% 1.0 mph NNE1.6 kmh NNE 10.0 mph16.1 kmh 29.59 in1002.0 mb 0.02 in0.5 mm 0.20 in/hr5.1 mm/hr 0.02 in0.5 mm
01:35 AM 66.1°F18.9°C 63.4°F17.4°C 91% Calm Calm 10.0 mph16.1 kmh 29.60 in1002.4 mb 0.01 in0.3 mm 0.00 in/hr0.0 mm/hr 0.01 in0.3 mm
01:34 AM 66.1°F18.9°C 63.4°F17.4°C 91% 2.0 mph NNE3.2 kmh NNE 10.0 mph16.1 kmh 29.60 in1002.4 mb 0.01 in0.3 mm 0.00 in/hr0.0 mm/hr 0.01 in0.3 mm
01:33 AM 66.1°F18.9°C 63.4°F17.4°C 91% 2.0 mph NNE3.2 kmh NNE 10.0 mph16.1 kmh 29.60 in1002.4 mb 0.01 in0.3 mm 0.00 in/hr0.0 mm/hr 0.01 in0.3 mm
01:30 AM 66.0°F18.9°C 63.3°F17.4°C 91% 2.0 mph NNE3.2 kmh NNE 10.0 mph16.1 kmh 29.60 in1002.4 mb 0.01 in0.3 mm 0.00 in/hr0.0 mm/hr 0.01 in0.3 mm
01:29 AM 66.0°F18.9°C 63.3°F17.4°C 91% 3.0 mph NNE4.8 kmh NNE 10.0 mph16.1 kmh 29.60 in1002.4 mb 0.01 in0.3 mm 0.00 in/hr0.0 mm/hr 0.01 in0.3 mm
01:28 AM 66.0°F18.9°C 63.3°F17.4°C 91% 4.0 mph NNE6.4 kmh NNE 10.0 mph16.1 kmh 29.60 in1002.4 mb 0.01 in0.3 mm 0.00 in/hr0.0 mm/hr 0.01 in0.3 mm
01:25 AM 66.0°F18.9°C 63.3°F17.4°C 91% Calm Calm 10.0 mph16.1 kmh 29.60 in1002.4 mb 0.01 in0.3 mm 0.00 in/hr0.0 mm/hr 0.01 in0.3 mm
01:24 AM 66.0°F18.9°C 63.3°F17.4°C 91% 6.0 mph N9.7 kmh N 10.0 mph16.1 kmh 29.60 in1002.4 mb 0.01 in0.3 mm 0.00 in/hr0.0 mm/hr 0.01 in0.3 mm
01:23 AM 66.0°F18.9°C 63.3°F17.4°C 91% 8.0 mph N12.9 kmh N 10.0 mph16.1 kmh 29.60 in1002.4 mb 0.01 in0.3 mm 0.00 in/hr0.0 mm/hr 0.01 in0.3 mm
01:20 AM 66.0°F18.9°C 63.3°F17.4°C 91% 3.0 mph NNE4.8 kmh NNE 10.0 mph16.1 kmh 29.60 in1002.4 mb 0.01 in0.3 mm 0.00 in/hr0.0 mm/hr 0.01 in0.3 mm
01:19 AM 66.0°F18.9°C 63.3°F17.4°C 91% 3.0 mph NNE4.8 kmh NNE 10.0 mph16.1 kmh 29.60 in1002.4 mb 0.01 in0.3 mm 0.00 in/hr0.0 mm/hr 0.01 in0.3 mm
01:18 AM 66.0°F18.9°C 63.3°F17.4°C 91% 3.0 mph NNE4.8 kmh NNE 10.0 mph16.1 kmh 29.60 in1002.4 mb 0.01 in0.3 mm 0.00 in/hr0.0 mm/hr 0.01 in0.3 mm
01:15 AM 65.9°F18.8°C 63.2°F17.3°C 91% 6.0 mph NNE9.7 kmh NNE 9.0 mph14.5 kmh 29.60 in1002.4 mb 0.01 in0.3 mm 0.00 in/hr0.0 mm/hr 0.01 in0.3 mm
01:14 AM 65.9°F18.8°C 63.2°F17.3°C 91% 2.0 mph NNE3.2 kmh NNE 9.0 mph14.5 kmh 29.60 in1002.4 mb 0.01 in0.3 mm 0.00 in/hr0.0 mm/hr 0.01 in0.3 mm
01:13 AM 65.9°F18.8°C 63.2°F17.3°C 91% 1.0 mph NNE1.6 kmh NNE 9.0 mph14.5 kmh 29.60 in1002.4 mb 0.01 in0.3 mm 0.00 in/hr0.0 mm/hr 0.01 in0.3 mm
01:10 AM 65.9°F18.8°C 63.2°F17.3°C 91% Calm Calm 9.0 mph14.5 kmh 29.60 in1002.4 mb 0.01 in0.3 mm 0.00 in/hr0.0 mm/hr 0.01 in0.3 mm
01:09 AM 65.9°F18.8°C 63.2°F17.3°C 91% 3.0 mph NNE4.8 kmh NNE 9.0 mph14.5 kmh 29.60 in1002.4 mb 0.01 in0.3 mm 0.00 in/hr0.0 mm/hr 0.01 in0.3 mm
01:08 AM 66.0°F18.9°C 63.3°F17.4°C 91% 6.0 mph NNE9.7 kmh NNE 9.0 mph14.5 kmh 29.60 in1002.4 mb 0.01 in0.3 mm 0.00 in/hr0.0 mm/hr 0.01 in0.3 mm
01:05 AM 66.0°F18.9°C 63.3°F17.4°C 91% 6.0 mph NNE9.7 kmh NNE 9.0 mph14.5 kmh 29.60 in1002.4 mb 0.01 in0.3 mm 0.00 in/hr0.0 mm/hr 0.01 in0.3 mm
01:04 AM 66.0°F18.9°C 63.6°F17.6°C 92% 3.0 mph NE4.8 kmh NE 8.0 mph12.9 kmh 29.61 in1002.7 mb 0.01 in0.3 mm 0.00 in/hr0.0 mm/hr 0.01 in0.3 mm
01:03 AM 66.0°F18.9°C 63.6°F17.6°C 92% 1.0 mph NE1.6 kmh NE 8.0 mph12.9 kmh 29.60 in1002.4 mb 0.01 in0.3 mm 0.00 in/hr0.0 mm/hr 0.01 in0.3 mm
01:00 AM 66.0°F18.9°C 63.6°F17.6°C 92% 7.0 mph NE11.3 kmh NE 8.0 mph12.9 kmh 29.60 in1002.4 mb 0.01 in0.3 mm 0.00 in/hr0.0 mm/hr 0.01 in0.3 mm
12:59 AM 66.1°F18.9°C 63.4°F17.4°C 91% 1.0 mph NE1.6 kmh NE 11.0 mph17.7 kmh 29.60 in1002.4 mb 0.01 in0.3 mm 0.00 in/hr0.0 mm/hr 0.01 in0.3 mm
12:58 AM 66.1°F18.9°C 63.4°F17.4°C 91% 2.0 mph NE3.2 kmh NE 11.0 mph17.7 kmh 29.60 in1002.4 mb 0.01 in0.3 mm 0.00 in/hr0.0 mm/hr 0.01 in0.3 mm
12:55 AM 66.2°F19.0°C 63.8°F17.7°C 92% 3.0 mph ENE4.8 kmh ENE 11.0 mph17.7 kmh 29.60 in1002.4 mb 0.01 in0.3 mm 0.00 in/hr0.0 mm/hr 0.01 in0.3 mm
12:54 AM 66.3°F19.1°C 63.9°F17.7°C 92% 5.0 mph ENE8.0 kmh ENE 11.0 mph17.7 kmh 29.60 in1002.4 mb 0.01 in0.3 mm 0.00 in/hr0.0 mm/hr 0.01 in0.3 mm
12:53 AM 66.2°F19.0°C 63.8°F17.7°C 92% 5.0 mph NE8.0 kmh NE 11.0 mph17.7 kmh 29.60 in1002.4 mb 0.01 in0.3 mm 0.00 in/hr0.0 mm/hr 0.01 in0.3 mm
12:50 AM 66.3°F19.1°C 63.9°F17.7°C 92% 6.0 mph NNE9.7 kmh NNE 11.0 mph17.7 kmh 29.60 in1002.4 mb 0.01 in0.3 mm 0.00 in/hr0.0 mm/hr 0.01 in0.3 mm
12:49 AM 66.2°F19.0°C 63.8°F17.7°C 92% 4.0 mph NE6.4 kmh NE 11.0 mph17.7 kmh 29.60 in1002.4 mb 0.01 in0.3 mm 0.00 in/hr0.0 mm/hr 0.01 in0.3 mm
12:48 AM 66.2°F19.0°C 63.8°F17.7°C 92% 4.0 mph NE6.4 kmh NE 11.0 mph17.7 kmh 29.60 in1002.4 mb 0.01 in0.3 mm 0.00 in/hr0.0 mm/hr 0.01 in0.3 mm
12:45 AM 66.2°F19.0°C 63.8°F17.7°C 92% 2.0 mph NE3.2 kmh NE 11.0 mph17.7 kmh 29.61 in1002.7 mb 0.01 in0.3 mm 0.00 in/hr0.0 mm/hr 0.01 in0.3 mm
12:44 AM 66.2°F19.0°C 63.8°F17.7°C 92% 1.0 mph NE1.6 kmh NE 11.0 mph17.7 kmh 29.61 in1002.7 mb 0.01 in0.3 mm 0.00 in/hr0.0 mm/hr 0.01 in0.3 mm
12:43 AM 66.1°F18.9°C 63.7°F17.6°C 92% 3.0 mph NNE4.8 kmh NNE 11.0 mph17.7 kmh 29.61 in1002.7 mb 0.01 in0.3 mm 0.00 in/hr0.0 mm/hr 0.01 in0.3 mm
12:40 AM 66.1°F18.9°C 63.7°F17.6°C 92% 5.0 mph NNE8.0 kmh NNE 11.0 mph17.7 kmh 29.61 in1002.7 mb 0.01 in0.3 mm 0.00 in/hr0.0 mm/hr 0.01 in0.3 mm
12:39 AM 66.1°F18.9°C 63.7°F17.6°C 92% 3.0 mph NNE4.8 kmh NNE 11.0 mph17.7 kmh 29.61 in1002.7 mb 0.01 in0.3 mm 0.00 in/hr0.0 mm/hr 0.01 in0.3 mm
12:38 AM 66.0°F18.9°C 63.6°F17.6°C 92% 1.0 mph NNE1.6 kmh NNE 11.0 mph17.7 kmh 29.61 in1002.7 mb 0.01 in0.3 mm 0.00 in/hr0.0 mm/hr 0.01 in0.3 mm
12:35 AM 66.0°F18.9°C 63.6°F17.6°C 92% 5.0 mph NNE8.0 kmh NNE 11.0 mph17.7 kmh 29.61 in1002.7 mb 0.01 in0.3 mm 0.00 in/hr0.0 mm/hr 0.01 in0.3 mm
12:34 AM 66.0°F18.9°C 63.6°F17.6°C 92% 8.0 mph NNE12.9 kmh NNE 11.0 mph17.7 kmh 29.61 in1002.7 mb 0.01 in0.3 mm 0.00 in/hr0.0 mm/hr 0.01 in0.3 mm
12:33 AM 65.9°F18.8°C 63.5°F17.5°C 92% 5.0 mph NNE8.0 kmh NNE 11.0 mph17.7 kmh 29.61 in1002.7 mb 0.01 in0.3 mm 0.00 in/hr0.0 mm/hr 0.01 in0.3 mm
12:30 AM 65.9°F18.8°C 63.5°F17.5°C 92% 5.0 mph N8.0 kmh N 11.0 mph17.7 kmh 29.61 in1002.7 mb 0.01 in0.3 mm 0.00 in/hr0.0 mm/hr 0.01 in0.3 mm
12:29 AM 65.9°F18.8°C 63.5°F17.5°C 92% 5.0 mph N8.0 kmh N 11.0 mph17.7 kmh 29.61 in1002.7 mb 0.01 in0.3 mm 0.00 in/hr0.0 mm/hr 0.01 in0.3 mm
12:28 AM 65.9°F18.8°C 63.5°F17.5°C 92% 6.0 mph N9.7 kmh N 11.0 mph17.7 kmh 29.61 in1002.7 mb 0.01 in0.3 mm 0.20 in/hr5.1 mm/hr 0.01 in0.3 mm
12:25 AM 66.0°F18.9°C 63.6°F17.6°C 92% 4.0 mph N6.4 kmh N 11.0 mph17.7 kmh 29.61 in1002.7 mb 0.00 in0.0 mm 0.00 in/hr0.0 mm/hr 0.00 in0.0 mm
12:24 AM 66.0°F18.9°C 63.6°F17.6°C 92% 4.0 mph N6.4 kmh N 11.0 mph17.7 kmh 29.61 in1002.7 mb 0.00 in0.0 mm 0.00 in/hr0.0 mm/hr 0.00 in0.0 mm
12:23 AM 66.0°F18.9°C 63.6°F17.6°C 92% 7.0 mph N11.3 kmh N 11.0 mph17.7 kmh 29.61 in1002.7 mb 0.00 in0.0 mm 0.00 in/hr0.0 mm/hr 0.00 in0.0 mm
12:20 AM 66.1°F18.9°C 63.7°F17.6°C 92% 8.0 mph NNE12.9 kmh NNE 11.0 mph17.7 kmh 29.61 in1002.7 mb 0.00 in0.0 mm 0.00 in/hr0.0 mm/hr 0.00 in0.0 mm
12:19 AM 66.1°F18.9°C 63.7°F17.6°C 92% 5.0 mph NE8.0 kmh NE 11.0 mph17.7 kmh 29.61 in1002.7 mb 0.00 in0.0 mm 0.00 in/hr0.0 mm/hr 0.00 in0.0 mm
12:18 AM 66.1°F18.9°C 63.7°F17.6°C 92% 8.0 mph NE12.9 kmh NE 11.0 mph17.7 kmh 29.62 in1003.0 mb 0.00 in0.0 mm 0.00 in/hr0.0 mm/hr 0.00 in0.0 mm
12:15 AM 66.1°F18.9°C 63.7°F17.6°C 92% 4.0 mph N6.4 kmh N 11.0 mph17.7 kmh 29.62 in1003.0 mb 0.00 in0.0 mm 0.00 in/hr0.0 mm/hr 0.00 in0.0 mm
12:14 AM 66.0°F18.9°C 63.6°F17.6°C 92% 6.0 mph NNE9.7 kmh NNE 11.0 mph17.7 kmh 29.62 in1003.0 mb 0.00 in0.0 mm 0.00 in/hr0.0 mm/hr 0.00 in0.0 mm
12:13 AM 66.1°F18.9°C 63.4°F17.4°C 91% 8.0 mph NNW12.9 kmh NNW 11.0 mph17.7 kmh 29.62 in1003.0 mb 0.00 in0.0 mm 0.00 in/hr0.0 mm/hr 0.00 in0.0 mm
12:10 AM 66.3°F19.1°C 63.6°F17.6°C 91% 4.0 mph N6.4 kmh N 9.0 mph14.5 kmh 29.62 in1003.0 mb 0.00 in0.0 mm 0.00 in/hr0.0 mm/hr 0.00 in0.0 mm
12:09 AM 66.3°F19.1°C 63.9°F17.7°C 92% 3.0 mph N4.8 kmh N 8.0 mph12.9 kmh 29.62 in1003.0 mb 0.00 in0.0 mm 0.00 in/hr0.0 mm/hr 0.00 in0.0 mm
12:08 AM 66.3°F19.1°C 63.6°F17.6°C 91% 4.0 mph N6.4 kmh N 7.0 mph11.3 kmh 29.62 in1003.0 mb 0.00 in0.0 mm 0.00 in/hr0.0 mm/hr 0.00 in0.0 mm
12:05 AM 66.2°F19.0°C 63.5°F17.5°C 91% 7.0 mph NNW11.3 kmh NNW 7.0 mph11.3 kmh 29.63 in1003.4 mb 0.00 in0.0 mm 0.00 in/hr0.0 mm/hr 0.00 in0.0 mm
12:04 AM 66.2°F19.0°C 63.5°F17.5°C 91% 5.0 mph NNW8.0 kmh NNW 7.0 mph11.3 kmh 29.63 in1003.4 mb 0.00 in0.0 mm 0.00 in/hr0.0 mm/hr 0.00 in0.0 mm
12:03 AM 66.2°F19.0°C 63.5°F17.5°C 91% 5.0 mph NW8.0 kmh NW 7.0 mph11.3 kmh 29.63 in1003.4 mb 0.00 in0.0 mm 0.00 in/hr0.0 mm/hr 0.00 in0.0 mm
12:00 AM 66.2°F19.0°C 63.5°F17.5°C 91% 5.0 mph NW8.0 kmh NW 5.0 mph8.0 kmh 29.64 in1003.7 mb 0.00 in0.0 mm 0.00 in/hr0.0 mm/hr 0.00 in0.0 mm